Time,TemperatureF,DewpointF,PressureIn,WindDirection,WindDirectionDegrees,WindSpeedMPH,WindSpeedGustMPH,Humidity,HourlyPrecipIn,Conditions,Clouds,dailyrainin,SoftwareType,DateUTC
2013-04-08 00:09:00,53.6,42.9,30.01,WSW,247,10.4,-999.0,67,-99.99,,,0.00,Acu-Link.com,2013-04-08 04:09:00,
2013-04-08 00:24:00,54.1,42.6,30.00,WSW,247,17.6,-999.0,65,-99.99,,,0.00,Acu-Link.com,2013-04-08 04:24:00,
2013-04-08 00:39:00,54.1,42.2,30.00,WSW,247,11.4,-999.0,64,-99.99,,,0.00,Acu-Link.com,2013-04-08 04:39:00,
2013-04-08 00:54:00,54.5,42.6,29.99,WSW,247,11.4,-999.0,64,-99.99,,,0.00,Acu-Link.com,2013-04-08 04:54:00,
2013-04-08 01:09:00,54.1,42.2,30.00,SW,225,10.4,-999.0,64,-99.99,,,0.00,Acu-Link.com,2013-04-08 05:09:00,
2013-04-08 01:25:00,54.0,42.1,30.00,WSW,247,10.9,-999.0,64,-99.99,,,0.00,Acu-Link.com,2013-04-08 05:25:00,
2013-04-08 01:40:00,53.6,42.1,30.00,WSW,247,7.3,-999.0,65,-99.99,,,0.00,Acu-Link.com,2013-04-08 05:40:00,
2013-04-08 01:55:00,52.7,41.7,30.00,SW,225,4.7,-999.0,66,-99.99,,,0.00,Acu-Link.com,2013-04-08 05:55:00,
2013-04-08 02:10:00,52.2,41.6,30.00,SW,225,4.7,-999.0,67,-99.99,,,0.00,Acu-Link.com,2013-04-08 06:10:00,
2013-04-08 02:25:00,52.2,42.0,30.00,WSW,247,6.3,-999.0,68,-99.99,,,0.00,Acu-Link.com,2013-04-08 06:25:00,
2013-04-08 02:40:00,52.0,41.8,30.00,WSW,247,6.3,-999.0,68,-99.99,,,0.00,Acu-Link.com,2013-04-08 06:40:00,
2013-04-08 02:55:00,52.3,41.7,30.00,WSW,247,6.8,-999.0,67,-99.99,,,0.00,Acu-Link.com,2013-04-08 06:55:00,
2013-04-08 03:11:00,51.8,41.6,29.99,SW,225,6.3,-999.0,68,-99.99,,,0.00,Acu-Link.com,2013-04-08 07:11:00,
2013-04-08 03:41:00,51.1,41.3,29.99,SW,225,4.2,-999.0,69,-99.99,,,0.00,Acu-Link.com,2013-04-08 07:41:00,
2013-04-08 03:56:00,51.1,41.3,30.00,SSW,202,3.7,-999.0,69,-99.99,,,0.00,Acu-Link.com,2013-04-08 07:56:00,
2013-04-08 04:12:00,51.3,41.5,29.99,SSW,202,3.7,-999.0,69,-99.99,,,0.00,Acu-Link.com,2013-04-08 08:12:00,
2013-04-08 04:27:00,51.3,41.5,30.00,SW,225,4.7,-999.0,69,-99.99,,,0.00,Acu-Link.com,2013-04-08 08:27:00,
2013-04-08 04:42:00,51.3,41.5,30.00,WSW,247,4.2,-999.0,69,-99.99,,,0.00,Acu-Link.com,2013-04-08 08:42:00,
2013-04-08 04:57:00,50.7,41.3,30.01,SW,225,3.2,-999.0,70,-99.99,,,0.00,Acu-Link.com,2013-04-08 08:57:00,
2013-04-08 05:12:00,50.4,41.0,30.01,SW,225,3.7,-999.0,70,-99.99,,,0.00,Acu-Link.com,2013-04-08 09:12:00,
2013-04-08 05:27:00,50.2,41.2,30.01,SW,225,3.2,-999.0,71,-99.99,,,0.00,Acu-Link.com,2013-04-08 09:27:00,
2013-04-08 05:42:00,50.5,41.5,30.01,SW,225,2.7,-999.0,71,-99.99,,,0.00,Acu-Link.com,2013-04-08 09:42:00,
2013-04-08 05:57:00,50.7,41.6,30.01,SW,225,2.7,-999.0,71,-99.99,,,0.00,Acu-Link.com,2013-04-08 09:57:00,
2013-04-08 06:13:00,50.5,41.5,30.02,SSW,202,2.2,-999.0,71,-99.99,,,0.00,Acu-Link.com,2013-04-08 10:13:00,
2013-04-08 06:28:00,50.5,41.5,30.02,SW,225,2.7,-999.0,71,-99.99,,,0.00,Acu-Link.com,2013-04-08 10:28:00,
2013-04-08 06:43:00,50.7,41.6,30.02,SW,225,3.2,-999.0,71,-99.99,,,0.00,Acu-Link.com,2013-04-08 10:43:00,
2013-04-08 06:58:00,50.5,41.5,30.03,WSW,247,3.2,-999.0,71,-99.99,,,0.00,Acu-Link.com,2013-04-08 10:58:00,
2013-04-08 07:29:00,49.5,41.2,30.04,SW,225,3.2,-999.0,73,-99.99,,,0.00,Acu-Link.com,2013-04-08 11:29:00,
2013-04-08 07:59:00,50.0,42.0,30.04,SW,225,2.2,-999.0,74,-99.99,,,0.00,Acu-Link.com,2013-04-08 11:59:00,
2013-04-08 08:14:00,54.1,43.4,30.04,SW,225,3.2,-999.0,67,-99.99,,,0.00,Acu-Link.com,2013-04-08 12:14:00,
2013-04-08 08:29:00,57.2,44.3,30.04,SW,225,3.2,-999.0,62,-99.99,,,0.00,Acu-Link.com,2013-04-08 12:29:00,
2013-04-08 08:45:00,57.2,43.9,30.04,SSW,202,4.2,-999.0,61,-99.99,,,0.00,Acu-Link.com,2013-04-08 12:45:00,
2013-04-08 09:00:00,59.2,44.4,30.04,WSW,247,4.2,-999.0,58,-99.99,,,0.00,Acu-Link.com,2013-04-08 13:00:00,
2013-04-08 09:15:00,60.8,45.0,30.04,SSW,202,3.2,-999.0,56,-99.99,,,0.00,Acu-Link.com,2013-04-08 13:15:00,
2013-04-08 09:30:00,61.2,45.4,30.04,SW,225,4.2,-999.0,56,-99.99,,,0.00,Acu-Link.com,2013-04-08 13:30:00,
2013-04-08 09:45:00,62.4,45.0,30.03,SW,225,4.7,-999.0,53,-99.99,,,0.00,Acu-Link.com,2013-04-08 13:45:00,
2013-04-08 10:00:00,63.3,45.9,30.03,SW,225,4.7,-999.0,53,-99.99,,,0.00,Acu-Link.com,2013-04-08 14:00:00,
2013-04-08 10:16:00,63.0,45.1,30.03,SW,225,4.7,-999.0,52,-99.99,,,0.00,Acu-Link.com,2013-04-08 14:16:00,
2013-04-08 10:31:00,64.4,45.9,30.03,WSW,247,4.2,-999.0,51,-99.99,,,0.00,Acu-Link.com,2013-04-08 14:31:00,
2013-04-08 11:01:00,66.7,45.3,30.03,WSW,247,5.8,-999.0,46,-99.99,,,0.00,Acu-Link.com,2013-04-08 15:01:00,
2013-04-08 11:31:00,67.8,45.7,30.00,WSW,247,5.3,-999.0,45,-99.99,,,0.00,Acu-Link.com,2013-04-08 15:31:00,
2013-04-08 11:47:00,67.6,46.1,29.97,SW,225,3.7,-999.0,46,-99.99,,,0.00,Acu-Link.com,2013-04-08 15:47:00,
2013-04-08 12:02:00,70.3,46.7,29.94,WSW,247,7.8,-999.0,43,-99.99,,,0.00,Acu-Link.com,2013-04-08 16:02:00,
2013-04-08 12:17:00,70.2,46.0,29.92,WSW,247,3.7,-999.0,42,-99.99,,,0.00,Acu-Link.com,2013-04-08 16:17:00,
2013-04-08 12:32:00,70.7,46.5,29.92,NNW,337,7.3,-999.0,42,-99.99,,,0.00,Acu-Link.com,2013-04-08 16:32:00,
2013-04-08 13:02:00,71.1,46.2,29.94,West,270,8.9,-999.0,41,-99.99,,,0.00,Acu-Link.com,2013-04-08 17:02:00,
2013-04-08 13:18:00,69.3,45.2,29.91,WSW,247,3.7,-999.0,42,-99.99,,,0.00,Acu-Link.com,2013-04-08 17:18:00,
2013-04-08 13:33:00,73.6,47.1,29.91,WSW,247,11.9,-999.0,39,-99.99,,,0.00,Acu-Link.com,2013-04-08 17:33:00,
2013-04-08 13:48:00,71.4,45.1,29.92,WSW,247,6.3,-999.0,39,-99.99,,,0.00,Acu-Link.com,2013-04-08 17:48:00,
2013-04-08 14:03:00,70.9,44.7,29.94,WSW,247,3.7,-999.0,39,-99.99,,,0.00,Acu-Link.com,2013-04-08 18:03:00,
2013-04-08 14:34:00,73.0,47.2,29.92,ESE,112,3.2,-999.0,40,-99.99,,,0.00,Acu-Link.com,2013-04-08 18:34:00,
2013-04-08 14:49:00,71.6,46.6,29.90,SE,135,5.8,-999.0,41,-99.99,,,0.00,Acu-Link.com,2013-04-08 18:49:00,
2013-04-08 15:04:00,71.2,45.0,29.92,SW,225,3.7,-999.0,39,-99.99,,,0.00,Acu-Link.com,2013-04-08 19:04:00,
2013-04-08 15:19:00,74.5,45.8,29.90,SW,225,7.8,-999.0,36,-99.99,,,0.00,Acu-Link.com,2013-04-08 19:19:00,
2013-04-08 15:35:00,73.2,43.9,29.91,SSW,202,5.3,-999.0,35,-99.99,,,0.00,Acu-Link.com,2013-04-08 19:35:00,
2013-04-08 16:05:00,73.6,42.7,29.90,SW,225,8.9,-999.0,33,-99.99,,,0.00,Acu-Link.com,2013-04-08 20:05:00,
2013-04-08 16:20:00,72.9,45.1,29.91,SW,225,8.3,-999.0,37,-99.99,,,0.00,Acu-Link.com,2013-04-08 20:20:00,
2013-04-08 16:35:00,71.8,44.8,29.90,SSW,202,4.7,-999.0,38,-99.99,,,0.00,Acu-Link.com,2013-04-08 20:35:00,
2013-04-08 16:50:00,72.5,45.4,29.90,SW,225,7.8,-999.0,38,-99.99,,,0.00,Acu-Link.com,2013-04-08 20:50:00,
2013-04-08 17:05:00,72.1,46.4,29.91,SSW,202,5.8,-999.0,40,-99.99,,,0.00,Acu-Link.com,2013-04-08 21:05:00,
2013-04-08 17:51:00,72.9,49.7,29.90,SW,225,4.2,-999.0,44,-99.99,,,0.00,Acu-Link.com,2013-04-08 21:51:00,
2013-04-08 18:07:00,70.7,49.5,29.91,WSW,247,7.3,-999.0,47,-99.99,,,0.00,Acu-Link.com,2013-04-08 22:07:00,
2013-04-08 18:22:00,69.1,49.1,29.92,WSW,247,8.9,-999.0,49,-99.99,,,0.00,Acu-Link.com,2013-04-08 22:22:00,
2013-04-08 18:37:00,69.6,50.1,29.92,SW,225,5.3,-999.0,50,-99.99,,,0.00,Acu-Link.com,2013-04-08 22:37:00,
2013-04-08 18:52:00,67.5,49.8,29.93,SW,225,6.3,-999.0,53,-99.99,,,0.00,Acu-Link.com,2013-04-08 22:52:00,
2013-04-08 19:08:00,66.7,50.0,29.93,SW,225,6.3,-999.0,55,-99.99,,,0.00,Acu-Link.com,2013-04-08 23:08:00,
2013-04-08 19:23:00,65.7,49.6,29.93,WSW,247,9.9,-999.0,56,-99.99,,,0.00,Acu-Link.com,2013-04-08 23:23:00,
2013-04-08 19:38:00,64.8,49.2,29.94,SW,225,7.8,-999.0,57,-99.99,,,0.00,Acu-Link.com,2013-04-08 23:38:00,
2013-04-08 19:53:00,63.7,49.1,29.94,SW,225,4.7,-999.0,59,-99.99,,,0.00,Acu-Link.com,2013-04-08 23:53:00,
2013-04-08 20:39:00,62.2,48.6,29.96,SW,225,5.8,-999.0,61,-99.99,,,0.00,Acu-Link.com,2013-04-09 00:39:00,
2013-04-08 20:54:00,61.9,48.3,29.97,SSW,202,5.3,-999.0,61,-99.99,,,0.00,Acu-Link.com,2013-04-09 00:54:00,
2013-04-08 21:10:00,61.2,48.1,29.97,WSW,247,5.3,-999.0,62,-99.99,,,0.00,Acu-Link.com,2013-04-09 01:10:00,
2013-04-08 21:25:00,60.6,47.9,29.97,SW,225,5.8,-999.0,63,-99.99,,,0.00,Acu-Link.com,2013-04-09 01:25:00,
2013-04-08 21:40:00,60.1,47.9,29.98,SW,225,4.7,-999.0,64,-99.99,,,0.00,Acu-Link.com,2013-04-09 01:40:00,
2013-04-08 21:55:00,60.1,48.3,29.97,WSW,247,5.3,-999.0,65,-99.99,,,0.00,Acu-Link.com,2013-04-09 01:55:00,
2013-04-08 22:11:00,59.5,48.1,29.97,SSW,202,5.3,-999.0,66,-99.99,,,0.00,Acu-Link.com,2013-04-09 02:11:00,
2013-04-08 22:26:00,60.1,48.7,29.99,WSW,247,6.3,-999.0,66,-99.99,,,0.00,Acu-Link.com,2013-04-09 02:26:00,
2013-04-08 22:57:00,59.4,48.8,29.98,WSW,247,5.8,-999.0,68,-99.99,,,0.00,Acu-Link.com,2013-04-09 02:57:00,
2013-04-08 23:12:00,59.2,48.2,29.99,SW,225,3.7,-999.0,67,-99.99,,,0.00,Acu-Link.com,2013-04-09 03:12:00,
2013-04-08 23:27:00,59.2,48.6,29.99,SW,225,4.7,-999.0,68,-99.99,,,0.00,Acu-Link.com,2013-04-09 03:27:00,
2013-04-08 23:42:00,58.3,48.2,29.99,WSW,247,4.7,-999.0,69,-99.99,,,0.00,Acu-Link.com,2013-04-09 03:42:00,
2013-04-08 23:57:00,57.7,48.4,30.00,SSW,202,4.7,-999.0,71,-99.99,,,0.00,Acu-Link.com,2013-04-09 03:57:00,